Flight Track Log - Related Links

Times and Time Zones

All times are in EDT time to prevent confusion due to time zone crossing. See the GPD95 flight status page for this flight to view local times or setup timezone preferences in your user account.

Time Position Orientation Groundspeed Altitude Reporting Facility
EDT Latitude Longitude Course Direction KTS MPH feet Rate Location/Type
Fri 05:56:00 PM 41.3516 -70.9066 259° West  Level Estimated
Fri 05:57:00 PM 41.3446 -70.9553 259° West  Level Estimated
Fri 05:58:00 PM 41.3375 -71.0040 259° West  Level Estimated
Fri 05:59:00 PM 41.3304 -71.0528 259° West  Level Estimated
Fri 05:59:56 PM 41.3806 -70.8578 308° West 142 163 6,800  Level Boston Center
Fri 06:00:00 PM 41.3233 -71.1015 259° West  Level Estimated
Fri 06:01:00 PM 41.3162 -71.1502 259° West  Level Estimated
Fri 06:01:02 PM 41.4106 -70.9039 311° West 144 166 7,800  Level Boston Center
Fri 06:02:00 PM 41.3091 -71.1989 259° West  Level Estimated
Fri 06:02:04 PM 41.4361 -70.9447 310° West 154 177 8,100  Level Boston Center
Fri 06:02:58 PM 41.4617 -70.9914 306° West 168 193 8,100  Level Boston Center
Fri 06:03:00 PM 41.3019 -71.2475 259° West  Level Estimated
Fri 06:04:00 PM 41.2947 -71.2962 259° West  Level Estimated
Fri 06:04:05 PM 41.4936 -71.0489 307° West 173 199 8,100  Level Boston Center
Fri 06:05:06 PM 41.5233 -71.0981 309° West 169 194 8,100  Level Boston Center
Fri 06:06:13 PM 41.5575 -71.1556 308° West 168 193 8,100  Level Boston Center
Fri 06:07:14 PM 41.5872 -71.2050 309° West 172 198 8,100  Level Boston Center
Fri 06:08:15 PM 41.6189 -71.2544 311° West 169 194 8,100  Level Boston Center
Fri 06:09:16 PM 41.6464 -71.3039 307° West 168 193 8,100  Level Boston Center
Fri 06:10:04 PM 41.6678 -71.3425 307° West 171 197 8,100  Level Boston Center
Fri 06:11:17 PM 41.7078 -71.4056 310° West 172 198 8,100 -45 Level Boston Center
Fri 06:12:18 PM 41.7167 -71.4639 282° West 170 196 8,000  Descending Boston Center
Fri 06:13:13 PM 41.7153 -71.5222 268° West 171 197 8,100 52 Climbing Boston Center
Fri 06:14:14 PM 41.7114 -71.5836 265° West 173 199 8,100  Level Boston Center
Fri 06:15:09 PM 41.7056 -71.6419 262° West 178 205 8,100  Level Boston Center
Fri 06:16:10 PM 41.7019 -71.7061 266° West 168 193 8,100  Level Boston Center
Fri 06:17:08 PM 41.6981 -71.7700 265° West 169 194 8,100  Level Boston Center
Fri 06:18:21 PM 41.6922 -71.8481 264° West 171 197 8,100  Level Boston Center
Fri 06:19:15 PM 41.6883 -71.9008 264° West 172 198 8,100  Level Boston Center
Fri 06:20:16 PM 41.6825 -71.9675 263° West 172 198 8,100  Level Boston Center
Fri 06:21:23 PM 41.6786 -72.0369 266° West 172 198 8,100  Level Boston Center
Fri 06:22:24 PM 41.6725 -72.1039 263° West 173 199 8,100  Level Boston Center
Fri 06:23:24 PM 41.6664 -72.1678 263° West 174 200 8,100  Level Boston Center
Fri 06:24:25 PM 41.6625 -72.2344 266° West 175 201 8,100  Level Boston Center
Fri 06:25:26 PM 41.6583 -72.2983 265° West 174 200 8,100  Level Boston Center
Fri 06:26:32 PM 41.6522 -72.3678 263° West 174 200 8,100  Level Boston Center
Fri 06:27:33 PM 41.6458 -72.4344 263° West 174 200 8,100  Level Boston Center
Fri 06:28:34 PM 41.6417 -72.5039 265° West 175 201 8,100  Level Boston Center
Fri 06:29:41 PM 41.6272 -72.5650 252° West 170 196 8,100 -117 Level Boston Center
Fri 06:30:17 PM 41.6042 -72.5900 219° Southwest 170 196 7,900 -371 Descending Boston Center
Fri 06:31:18 PM 41.5667 -72.6372 223° Southwest 180 207 7,500 -414 Descending Boston Center
Fri 06:32:13 PM 41.5311 -72.6786 221° Southwest 187 215 7,100 -362 Descending Boston Center
Fri 06:33:14 PM 41.4933 -72.7283 225° Southwest 188 216 6,800 -370 Descending Boston Center
Fri 06:34:39 PM 41.4392 -72.7944 222° Southwest 192 221 6,200 -198 Descending Boston Center
Fri 06:35:15 PM 41.4161 -72.8194 219° Southwest 184 212 6,400 233 Climbing Boston Center
Fri 06:36:22 PM 41.3908 -72.8800 241° Southwest 174 200 6,600 98 Climbing Boston Center
Fri 06:37:17 PM 41.3697 -72.9325 242° Southwest 177 204 6,600 -31 Level Boston Center
Fri 06:39:34 PM 41.3167 -73.0667 242° Southwest 183 211 6,500 -122 Descending New York TRACON
Fri 06:40:34 PM 41.2833 -73.1333 236° Southwest 188 216 6,200 -350 Descending New York TRACON
Fri 06:41:34 PM 41.2667 -73.1833 246° West 194 223 5,800 -400 Descending New York TRACON
Fri 06:42:34 PM 41.2333 -73.2500 236° Southwest 194 223 5,400 -400 Descending New York TRACON
Fri 06:43:34 PM 41.2167 -73.3167 252° West 194 223 5,000 -350 Descending New York TRACON
Fri 06:44:34 PM 41.1833 -73.3833 236° Southwest 195 224 4,700 -350 Descending New York TRACON
Fri 06:45:34 PM 41.1833 -73.4500 270° West 194 223 4,300 -400 Descending New York TRACON
Fri 06:46:34 PM 41.1667 -73.5167 252° West 197 227 3,900 -400 Descending New York TRACON
Fri 06:47:34 PM 41.1667 -73.5833 270° West 194 223 3,500 -450 Descending New York TRACON
Fri 06:48:34 PM 41.1833 -73.6667 285° West 196 226 3,000 -450 Descending New York TRACON
Fri 06:49:34 PM 41.1833 -73.7333 270° West 190 219 2,600 -250 Descending New York TRACON
Fri 06:50:34 PM 41.1833 -73.8000 270° West 181 208 2,500 -100 Descending New York TRACON
Fri 06:51:34 PM 41.1667 -73.8500 246° West 181 208 2,400 -250 Descending New York TRACON
Fri 06:52:34 PM 41.1167 -73.9000 217° Southwest 183 211 2,000 -450 Descending New York TRACON
Fri 06:53:34 PM 41.0833 -73.9167 201° Southwest 177 204 1,500 -350 Descending New York TRACON
Fri 06:54:34 PM 41.0333 -73.9167 180° South 171 197 1,300 -100 Descending New York TRACON
Fri 06:55:34 PM 40.9833 -73.9333 194° South 158 182 1,300  Level New York TRACON
Fri 06:56:34 PM 40.9500 -73.9500 201° Southwest 158 182 1,300 -50 Level New York TRACON
Fri 06:57:34 PM 40.9000 -74.0000 217° Southwest 183 211 1,200 -100 Descending New York TRACON
Fri 06:58:34 PM 40.8667 -74.0167 201° Southwest 168 193 1,100 -100 Descending New York TRACON
Fri 06:59:34 PM 40.8333 -74.0333 201° Southwest 151 174 1,000 -300 Descending New York TRACON
Fri 07:00:34 PM 40.8333 -74.0667 270° West 146 168 500 -400 Descending New York TRACON
Fri 07:01:34 PM 40.8500 -74.0500 37° Northeast 116 133 200 -300 Descending New York TRACON

Login

Don't have an account? Register now (free) for customized features, flight alerts, and more!